sensor_id;sensor_type;location;lat;lon;timestamp;P1;durP1;ratioP1;P2;durP2;ratioP2
16906;SDS011;8570;52.380;4.654;2023-01-15T00:03:12;13.43;;;2.80;;
16906;SDS011;8570;52.380;4.654;2023-01-15T00:08:15;17.53;;;3.17;;
16906;SDS011;8570;52.380;4.654;2023-01-15T00:13:17;18.17;;;3.10;;
16906;SDS011;8570;52.380;4.654;2023-01-15T00:18:19;14.10;;;2.83;;
16906;SDS011;8570;52.380;4.654;2023-01-15T00:23:22;11.73;;;2.83;;
16906;SDS011;8570;52.380;4.654;2023-01-15T00:28:38;19.30;;;3.33;;
16906;SDS011;8570;52.380;4.654;2023-01-15T00:33:40;19.73;;;2.97;;
16906;SDS011;8570;52.380;4.654;2023-01-15T00:38:43;18.63;;;3.27;;
16906;SDS011;8570;52.380;4.654;2023-01-15T00:43:45;16.23;;;3.63;;
16906;SDS011;8570;52.380;4.654;2023-01-15T00:48:53;10.33;;;2.63;;
16906;SDS011;8570;52.380;4.654;2023-01-15T00:53:59;13.67;;;3.00;;
16906;SDS011;8570;52.380;4.654;2023-01-15T00:59:02;15.73;;;2.93;;
16906;SDS011;8570;52.380;4.654;2023-01-15T01:04:05;18.93;;;3.13;;
16906;SDS011;8570;52.380;4.654;2023-01-15T01:09:10;16.40;;;3.67;;
16906;SDS011;8570;52.380;4.654;2023-01-15T01:14:13;14.83;;;2.83;;
16906;SDS011;8570;52.380;4.654;2023-01-15T01:19:16;14.00;;;2.80;;
16906;SDS011;8570;52.380;4.654;2023-01-15T01:24:22;11.10;;;2.77;;
16906;SDS011;8570;52.380;4.654;2023-01-15T01:29:24;15.20;;;2.70;;
16906;SDS011;8570;52.380;4.654;2023-01-15T01:34:29;14.00;;;2.93;;
16906;SDS011;8570;52.380;4.654;2023-01-15T01:39:34;14.43;;;2.90;;
16906;SDS011;8570;52.380;4.654;2023-01-15T01:50:12;14.90;;;2.63;;
16906;SDS011;8570;52.380;4.654;2023-01-15T01:55:17;14.23;;;2.43;;
16906;SDS011;8570;52.380;4.654;2023-01-15T02:00:22;13.83;;;2.70;;
16906;SDS011;8570;52.380;4.654;2023-01-15T02:05:26;12.90;;;2.90;;
16906;SDS011;8570;52.380;4.654;2023-01-15T02:10:35;13.93;;;2.67;;
16906;SDS011;8570;52.380;4.654;2023-01-15T02:15:42;10.97;;;2.47;;
16906;SDS011;8570;52.380;4.654;2023-01-15T02:20:48;12.57;;;2.50;;
16906;SDS011;8570;52.380;4.654;2023-01-15T02:26:06;26.83;;;3.17;;
16906;SDS011;8570;52.380;4.654;2023-01-15T02:31:34;20.80;;;3.40;;
16906;SDS011;8570;52.380;4.654;2023-01-15T02:36:41;18.97;;;3.10;;
16906;SDS011;8570;52.380;4.654;2023-01-15T02:42:00;21.03;;;3.07;;
16906;SDS011;8570;52.380;4.654;2023-01-15T02:47:05;12.50;;;2.70;;
16906;SDS011;8570;52.380;4.654;2023-01-15T02:52:13;18.23;;;2.87;;
16906;SDS011;8570;52.380;4.654;2023-01-15T02:57:21;11.33;;;2.40;;
16906;SDS011;8570;52.380;4.654;2023-01-15T03:02:39;14.90;;;2.73;;
16906;SDS011;8570;52.380;4.654;2023-01-15T03:07:58;15.63;;;3.10;;
16906;SDS011;8570;52.380;4.654;2023-01-15T03:13:01;16.13;;;2.50;;
16906;SDS011;8570;52.380;4.654;2023-01-15T03:18:07;16.90;;;3.20;;
16906;SDS011;8570;52.380;4.654;2023-01-15T03:23:13;19.57;;;2.70;;
16906;SDS011;8570;52.380;4.654;2023-01-15T03:28:22;16.70;;;2.77;;
16906;SDS011;8570;52.380;4.654;2023-01-15T03:33:29;14.97;;;2.80;;
16906;SDS011;8570;52.380;4.654;2023-01-15T03:38:32;14.90;;;3.03;;
16906;SDS011;8570;52.380;4.654;2023-01-15T03:43:38;16.97;;;3.17;;
16906;SDS011;8570;52.380;4.654;2023-01-15T03:48:54;15.33;;;2.77;;
16906;SDS011;8570;52.380;4.654;2023-01-15T03:54:01;15.23;;;3.00;;
16906;SDS011;8570;52.380;4.654;2023-01-15T03:59:09;9.63;;;2.50;;
16906;SDS011;8570;52.380;4.654;2023-01-15T04:04:19;10.73;;;2.53;;
16906;SDS011;8570;52.380;4.654;2023-01-15T04:09:26;15.43;;;2.90;;
16906;SDS011;8570;52.380;4.654;2023-01-15T04:14:28;20.47;;;3.70;;
16906;SDS011;8570;52.380;4.654;2023-01-15T04:19:32;12.40;;;2.43;;
16906;SDS011;8570;52.380;4.654;2023-01-15T04:24:34;8.57;;;2.37;;
16906;SDS011;8570;52.380;4.654;2023-01-15T04:29:38;22.07;;;2.80;;
16906;SDS011;8570;52.380;4.654;2023-01-15T04:34:45;9.80;;;2.37;;
16906;SDS011;8570;52.380;4.654;2023-01-15T04:39:47;10.40;;;2.40;;
16906;SDS011;8570;52.380;4.654;2023-01-15T04:44:49;13.07;;;2.47;;
16906;SDS011;8570;52.380;4.654;2023-01-15T04:49:52;10.10;;;2.47;;
16906;SDS011;8570;52.380;4.654;2023-01-15T04:54:54;11.07;;;2.60;;
16906;SDS011;8570;52.380;4.654;2023-01-15T05:00:02;10.27;;;2.70;;
16906;SDS011;8570;52.380;4.654;2023-01-15T05:05:12;11.80;;;2.23;;
16906;SDS011;8570;52.380;4.654;2023-01-15T05:10:17;12.03;;;2.07;;
16906;SDS011;8570;52.380;4.654;2023-01-15T05:15:19;10.20;;;2.67;;
16906;SDS011;8570;52.380;4.654;2023-01-15T05:20:30;9.87;;;2.00;;
16906;SDS011;8570;52.380;4.654;2023-01-15T05:25:38;12.20;;;2.10;;
16906;SDS011;8570;52.380;4.654;2023-01-15T05:30:40;12.30;;;2.13;;
16906;SDS011;8570;52.380;4.654;2023-01-15T05:35:46;10.60;;;2.30;;
16906;SDS011;8570;52.380;4.654;2023-01-15T05:40:48;13.50;;;2.20;;
16906;SDS011;8570;52.380;4.654;2023-01-15T05:45:50;10.50;;;2.00;;
16906;SDS011;8570;52.380;4.654;2023-01-15T05:50:56;9.57;;;2.40;;
16906;SDS011;8570;52.380;4.654;2023-01-15T05:56:02;11.00;;;2.20;;
16906;SDS011;8570;52.380;4.654;2023-01-15T06:01:08;11.07;;;2.00;;
16906;SDS011;8570;52.380;4.654;2023-01-15T06:06:13;10.40;;;2.30;;
16906;SDS011;8570;52.380;4.654;2023-01-15T06:11:18;17.80;;;2.20;;
16906;SDS011;8570;52.380;4.654;2023-01-15T06:16:23;12.77;;;3.00;;
16906;SDS011;8570;52.380;4.654;2023-01-15T06:21:30;8.27;;;2.13;;
16906;SDS011;8570;52.380;4.654;2023-01-15T06:26:33;18.60;;;3.37;;
16906;SDS011;8570;52.380;4.654;2023-01-15T06:31:36;13.07;;;2.67;;
16906;SDS011;8570;52.380;4.654;2023-01-15T06:36:46;11.20;;;2.20;;
16906;SDS011;8570;52.380;4.654;2023-01-15T06:41:49;17.43;;;4.07;;
16906;SDS011;8570;52.380;4.654;2023-01-15T06:47:11;14.77;;;2.37;;
16906;SDS011;8570;52.380;4.654;2023-01-15T06:52:25;13.17;;;2.10;;
16906;SDS011;8570;52.380;4.654;2023-01-15T06:57:28;14.43;;;1.97;;
16906;SDS011;8570;52.380;4.654;2023-01-15T07:02:30;14.67;;;2.93;;
16906;SDS011;8570;52.380;4.654;2023-01-15T07:07:34;18.03;;;2.37;;
16906;SDS011;8570;52.380;4.654;2023-01-15T07:12:36;12.23;;;2.90;;
16906;SDS011;8570;52.380;4.654;2023-01-15T07:17:41;10.00;;;2.40;;
16906;SDS011;8570;52.380;4.654;2023-01-15T07:22:45;13.40;;;2.57;;
16906;SDS011;8570;52.380;4.654;2023-01-15T07:27:54;15.43;;;3.00;;
16906;SDS011;8570;52.380;4.654;2023-01-15T07:32:56;12.73;;;2.40;;
16906;SDS011;8570;52.380;4.654;2023-01-15T07:38:00;16.43;;;3.03;;
16906;SDS011;8570;52.380;4.654;2023-01-15T07:43:02;14.00;;;2.83;;
16906;SDS011;8570;52.380;4.654;2023-01-15T07:48:21;17.80;;;3.00;;
16906;SDS011;8570;52.380;4.654;2023-01-15T07:53:42;14.67;;;3.20;;
16906;SDS011;8570;52.380;4.654;2023-01-15T07:58:44;15.07;;;2.83;;
16906;SDS011;8570;52.380;4.654;2023-01-15T08:03:49;13.63;;;3.30;;
16906;SDS011;8570;52.380;4.654;2023-01-15T08:08:52;17.50;;;3.47;;
16906;SDS011;8570;52.380;4.654;2023-01-15T08:13:54;17.30;;;3.10;;
16906;SDS011;8570;52.380;4.654;2023-01-15T08:19:14;21.07;;;3.23;;
16906;SDS011;8570;52.380;4.654;2023-01-15T08:24:17;17.13;;;3.40;;
16906;SDS011;8570;52.380;4.654;2023-01-15T08:29:25;14.40;;;3.07;;
16906;SDS011;8570;52.380;4.654;2023-01-15T08:34:29;21.03;;;3.47;;
16906;SDS011;8570;52.380;4.654;2023-01-15T08:39:42;20.47;;;4.17;;
16906;SDS011;8570;52.380;4.654;2023-01-15T08:44:45;22.33;;;3.70;;
16906;SDS011;8570;52.380;4.654;2023-01-15T08:49:47;17.40;;;3.63;;
16906;SDS011;8570;52.380;4.654;2023-01-15T08:54:50;15.73;;;2.93;;
16906;SDS011;8570;52.380;4.654;2023-01-15T08:59:52;15.10;;;3.23;;
16906;SDS011;8570;52.380;4.654;2023-01-15T09:04:54;19.83;;;3.57;;
16906;SDS011;8570;52.380;4.654;2023-01-15T09:10:07;16.43;;;4.00;;
16906;SDS011;8570;52.380;4.654;2023-01-15T09:15:12;25.50;;;3.37;;
16906;SDS011;8570;52.380;4.654;2023-01-15T09:20:14;18.83;;;3.43;;
16906;SDS011;8570;52.380;4.654;2023-01-15T09:25:17;11.07;;;3.20;;
16906;SDS011;8570;52.380;4.654;2023-01-15T09:30:22;19.23;;;3.13;;
16906;SDS011;8570;52.380;4.654;2023-01-15T09:35:26;15.00;;;3.63;;
16906;SDS011;8570;52.380;4.654;2023-01-15T09:40:35;20.53;;;3.63;;
16906;SDS011;8570;52.380;4.654;2023-01-15T09:45:44;19.83;;;4.68;;
16906;SDS011;8570;52.380;4.654;2023-01-15T09:50:56;17.73;;;3.83;;
16906;SDS011;8570;52.380;4.654;2023-01-15T09:56:12;20.57;;;4.03;;
16906;SDS011;8570;52.380;4.654;2023-01-15T10:01:26;18.33;;;3.67;;
16906;SDS011;8570;52.380;4.654;2023-01-15T10:06:40;21.87;;;4.33;;
16906;SDS011;8570;52.380;4.654;2023-01-15T10:12:01;22.00;;;3.60;;
16906;SDS011;8570;52.380;4.654;2023-01-15T10:17:37;17.40;;;3.50;;
16906;SDS011;8570;52.380;4.654;2023-01-15T10:23:14;14.43;;;3.17;;
16906;SDS011;8570;52.380;4.654;2023-01-15T10:28:52;15.97;;;4.07;;
16906;SDS011;8570;52.380;4.654;2023-01-15T10:34:11;16.87;;;3.40;;
16906;SDS011;8570;52.380;4.654;2023-01-15T10:39:35;23.53;;;3.50;;
16906;SDS011;8570;52.380;4.654;2023-01-15T10:44:54;18.67;;;3.60;;
16906;SDS011;8570;52.380;4.654;2023-01-15T10:50:12;19.97;;;3.83;;
16906;SDS011;8570;52.380;4.654;2023-01-15T10:55:22;17.53;;;3.33;;
16906;SDS011;8570;52.380;4.654;2023-01-15T11:00:45;26.37;;;4.47;;
16906;SDS011;8570;52.380;4.654;2023-01-15T11:05:55;15.63;;;3.10;;
16906;SDS011;8570;52.380;4.654;2023-01-15T11:11:17;11.80;;;2.80;;
16906;SDS011;8570;52.380;4.654;2023-01-15T11:16:45;14.20;;;3.47;;
16906;SDS011;8570;52.380;4.654;2023-01-15T11:22:17;19.13;;;3.50;;
16906;SDS011;8570;52.380;4.654;2023-01-15T11:27:59;23.70;;;3.73;;
16906;SDS011;8570;52.380;4.654;2023-01-15T11:33:20;22.17;;;3.63;;
16906;SDS011;8570;52.380;4.654;2023-01-15T11:38:41;19.33;;;3.33;;
16906;SDS011;8570;52.380;4.654;2023-01-15T11:43:58;23.53;;;3.53;;
16906;SDS011;8570;52.380;4.654;2023-01-15T11:49:30;20.27;;;3.83;;
16906;SDS011;8570;52.380;4.654;2023-01-15T11:54:50;27.53;;;3.90;;
16906;SDS011;8570;52.380;4.654;2023-01-15T11:59:54;16.03;;;3.70;;
16906;SDS011;8570;52.380;4.654;2023-01-15T12:05:12;16.27;;;4.40;;
16906;SDS011;8570;52.380;4.654;2023-01-15T12:10:25;12.60;;;3.07;;
16906;SDS011;8570;52.380;4.654;2023-01-15T12:15:48;15.30;;;3.47;;
16906;SDS011;8570;52.380;4.654;2023-01-15T12:21:15;25.23;;;3.80;;
16906;SDS011;8570;52.380;4.654;2023-01-15T12:26:50;26.87;;;4.37;;
16906;SDS011;8570;52.380;4.654;2023-01-15T12:43:39;20.23;;;4.00;;
16906;SDS011;8570;52.380;4.654;2023-01-15T12:49:46;16.40;;;3.63;;
16906;SDS011;8570;52.380;4.654;2023-01-15T12:55:13;16.23;;;3.10;;
16906;SDS011;8570;52.380;4.654;2023-01-15T13:00:27;17.27;;;3.83;;
16906;SDS011;8570;52.380;4.654;2023-01-15T13:05:38;24.83;;;4.33;;
16906;SDS011;8570;52.380;4.654;2023-01-15T13:11:02;19.80;;;3.43;;
16906;SDS011;8570;52.380;4.654;2023-01-15T13:22:53;15.53;;;3.00;;
16906;SDS011;8570;52.380;4.654;2023-01-15T13:27:55;22.00;;;3.63;;
16906;SDS011;8570;52.380;4.654;2023-01-15T13:33:31;15.40;;;3.20;;
16906;SDS011;8570;52.380;4.654;2023-01-15T13:38:39;12.23;;;3.07;;
16906;SDS011;8570;52.380;4.654;2023-01-15T13:43:47;13.37;;;2.57;;
16906;SDS011;8570;52.380;4.654;2023-01-15T13:48:56;12.47;;;2.60;;
16906;SDS011;8570;52.380;4.654;2023-01-15T13:53:58;12.40;;;2.30;;
16906;SDS011;8570;52.380;4.654;2023-01-15T13:59:05;13.33;;;2.50;;
16906;SDS011;8570;52.380;4.654;2023-01-15T14:04:35;7.70;;;1.87;;
16906;SDS011;8570;52.380;4.654;2023-01-15T14:09:43;7.87;;;2.03;;
16906;SDS011;8570;52.380;4.654;2023-01-15T14:20:25;11.73;;;1.77;;
16906;SDS011;8570;52.380;4.654;2023-01-15T14:25:43;15.87;;;2.37;;
16906;SDS011;8570;52.380;4.654;2023-01-15T14:31:11;16.07;;;2.50;;
16906;SDS011;8570;52.380;4.654;2023-01-15T14:36:22;9.43;;;2.53;;
16906;SDS011;8570;52.380;4.654;2023-01-15T14:41:28;7.33;;;1.70;;
16906;SDS011;8570;52.380;4.654;2023-01-15T14:46:34;10.40;;;2.60;;
16906;SDS011;8570;52.380;4.654;2023-01-15T14:51:45;18.07;;;2.50;;
16906;SDS011;8570;52.380;4.654;2023-01-15T14:56:50;10.77;;;2.43;;
16906;SDS011;8570;52.380;4.654;2023-01-15T15:01:59;14.20;;;2.20;;
16906;SDS011;8570;52.380;4.654;2023-01-15T15:07:09;10.67;;;2.27;;
16906;SDS011;8570;52.380;4.654;2023-01-15T15:12:22;9.67;;;2.43;;
16906;SDS011;8570;52.380;4.654;2023-01-15T15:17:54;14.15;;;2.67;;
16906;SDS011;8570;52.380;4.654;2023-01-15T15:23:09;10.05;;;2.45;;
16906;SDS011;8570;52.380;4.654;2023-01-15T15:28:43;14.93;;;3.10;;
16906;SDS011;8570;52.380;4.654;2023-01-15T15:34:24;16.83;;;2.90;;
16906;SDS011;8570;52.380;4.654;2023-01-15T15:39:34;17.47;;;3.10;;
16906;SDS011;8570;52.380;4.654;2023-01-15T15:44:59;13.47;;;2.67;;
16906;SDS011;8570;52.380;4.654;2023-01-15T15:50:42;21.60;;;4.00;;
16906;SDS011;8570;52.380;4.654;2023-01-15T15:56:01;14.27;;;3.20;;
16906;SDS011;8570;52.380;4.654;2023-01-15T16:13:20;18.43;;;3.50;;
16906;SDS011;8570;52.380;4.654;2023-01-15T16:18:37;15.13;;;3.23;;
16906;SDS011;8570;52.380;4.654;2023-01-15T16:23:56;16.50;;;3.33;;
16906;SDS011;8570;52.380;4.654;2023-01-15T16:29:03;11.83;;;2.80;;
16906;SDS011;8570;52.380;4.654;2023-01-15T16:34:24;11.37;;;2.87;;
16906;SDS011;8570;52.380;4.654;2023-01-15T16:39:31;23.33;;;3.67;;
16906;SDS011;8570;52.380;4.654;2023-01-15T16:44:44;20.93;;;3.80;;
16906;SDS011;8570;52.380;4.654;2023-01-15T16:49:54;12.63;;;3.37;;
16906;SDS011;8570;52.380;4.654;2023-01-15T17:00:58;18.90;;;3.93;;
16906;SDS011;8570;52.380;4.654;2023-01-15T17:06:03;12.30;;;3.37;;
16906;SDS011;8570;52.380;4.654;2023-01-15T17:11:16;8.27;;;2.23;;
16906;SDS011;8570;52.380;4.654;2023-01-15T17:16:30;15.80;;;3.00;;
16906;SDS011;8570;52.380;4.654;2023-01-15T17:21:32;14.40;;;3.50;;
16906;SDS011;8570;52.380;4.654;2023-01-15T17:26:35;9.57;;;2.53;;
16906;SDS011;8570;52.380;4.654;2023-01-15T17:31:41;9.23;;;3.10;;
16906;SDS011;8570;52.380;4.654;2023-01-15T17:36:53;10.10;;;2.83;;
16906;SDS011;8570;52.380;4.654;2023-01-15T17:41:55;10.50;;;2.13;;
16906;SDS011;8570;52.380;4.654;2023-01-15T17:46:59;7.07;;;2.07;;
16906;SDS011;8570;52.380;4.654;2023-01-15T17:52:01;8.57;;;2.27;;
16906;SDS011;8570;52.380;4.654;2023-01-15T17:57:06;6.97;;;1.80;;
16906;SDS011;8570;52.380;4.654;2023-01-15T18:02:27;6.60;;;2.33;;
16906;SDS011;8570;52.380;4.654;2023-01-15T18:07:46;8.33;;;2.73;;
16906;SDS011;8570;52.380;4.654;2023-01-15T18:12:48;9.27;;;2.97;;
16906;SDS011;8570;52.380;4.654;2023-01-15T18:17:55;17.07;;;3.00;;
16906;SDS011;8570;52.380;4.654;2023-01-15T18:23:12;15.88;;;4.05;;
16906;SDS011;8570;52.380;4.654;2023-01-15T18:28:25;16.40;;;4.60;;
16906;SDS011;8570;52.380;4.654;2023-01-15T18:33:40;14.77;;;3.93;;
16906;SDS011;8570;52.380;4.654;2023-01-15T18:38:42;11.23;;;3.43;;
16906;SDS011;8570;52.380;4.654;2023-01-15T18:43:47;12.60;;;3.03;;
16906;SDS011;8570;52.380;4.654;2023-01-15T18:49:21;14.17;;;4.50;;
16906;SDS011;8570;52.380;4.654;2023-01-15T18:54:25;15.97;;;3.30;;
16906;SDS011;8570;52.380;4.654;2023-01-15T18:59:28;15.95;;;4.15;;
16906;SDS011;8570;52.380;4.654;2023-01-15T19:04:31;29.07;;;4.40;;
16906;SDS011;8570;52.380;4.654;2023-01-15T19:09:33;8.67;;;3.10;;
16906;SDS011;8570;52.380;4.654;2023-01-15T19:14:38;14.18;;;3.38;;
16906;SDS011;8570;52.380;4.654;2023-01-15T19:20:01;13.00;;;2.70;;
16906;SDS011;8570;52.380;4.654;2023-01-15T19:25:04;12.70;;;3.07;;
16906;SDS011;8570;52.380;4.654;2023-01-15T19:30:09;8.37;;;2.90;;
16906;SDS011;8570;52.380;4.654;2023-01-15T19:35:15;10.23;;;3.37;;
16906;SDS011;8570;52.380;4.654;2023-01-15T19:40:18;7.60;;;2.20;;
16906;SDS011;8570;52.380;4.654;2023-01-15T19:45:26;12.27;;;2.70;;
16906;SDS011;8570;52.380;4.654;2023-01-15T19:50:51;7.97;;;1.93;;
16906;SDS011;8570;52.380;4.654;2023-01-15T19:55:58;11.13;;;2.03;;
16906;SDS011;8570;52.380;4.654;2023-01-15T20:01:01;7.80;;;2.20;;
16906;SDS011;8570;52.380;4.654;2023-01-15T20:06:15;12.17;;;2.50;;
16906;SDS011;8570;52.380;4.654;2023-01-15T20:11:22;7.43;;;1.80;;
16906;SDS011;8570;52.380;4.654;2023-01-15T20:16:44;7.63;;;2.00;;
16906;SDS011;8570;52.380;4.654;2023-01-15T20:21:48;6.03;;;2.13;;
16906;SDS011;8570;52.380;4.654;2023-01-15T20:26:53;6.83;;;2.40;;
16906;SDS011;8570;52.380;4.654;2023-01-15T20:31:55;8.17;;;2.60;;
16906;SDS011;8570;52.380;4.654;2023-01-15T20:36:58;7.17;;;2.47;;
16906;SDS011;8570;52.380;4.654;2023-01-15T20:42:02;6.87;;;2.10;;
16906;SDS011;8570;52.380;4.654;2023-01-15T20:47:22;5.80;;;2.80;;
16906;SDS011;8570;52.380;4.654;2023-01-15T20:52:45;4.03;;;1.60;;
16906;SDS011;8570;52.380;4.654;2023-01-15T20:57:53;3.67;;;1.73;;
16906;SDS011;8570;52.380;4.654;2023-01-15T21:02:55;3.63;;;2.13;;
16906;SDS011;8570;52.380;4.654;2023-01-15T21:08:05;3.40;;;1.90;;
16906;SDS011;8570;52.380;4.654;2023-01-15T21:13:21;3.40;;;1.80;;
16906;SDS011;8570;52.380;4.654;2023-01-15T21:18:25;3.37;;;1.67;;
16906;SDS011;8570;52.380;4.654;2023-01-15T21:23:30;5.00;;;1.87;;
16906;SDS011;8570;52.380;4.654;2023-01-15T21:28:32;3.50;;;1.60;;
16906;SDS011;8570;52.380;4.654;2023-01-15T21:33:34;4.23;;;1.33;;
16906;SDS011;8570;52.380;4.654;2023-01-15T21:39:03;1.23;;;1.00;;
16906;SDS011;8570;52.380;4.654;2023-01-15T21:44:12;3.93;;;1.43;;
16906;SDS011;8570;52.380;4.654;2023-01-15T21:49:31;2.80;;;1.20;;
16906;SDS011;8570;52.380;4.654;2023-01-15T21:54:42;1.63;;;1.40;;
16906;SDS011;8570;52.380;4.654;2023-01-15T21:59:57;1.90;;;1.20;;
16906;SDS011;8570;52.380;4.654;2023-01-15T22:05:09;4.50;;;1.93;;
16906;SDS011;8570;52.380;4.654;2023-01-15T22:10:13;3.13;;;2.10;;
16906;SDS011;8570;52.380;4.654;2023-01-15T22:15:17;4.17;;;2.37;;
16906;SDS011;8570;52.380;4.654;2023-01-15T22:20:30;3.73;;;2.40;;
16906;SDS011;8570;52.380;4.654;2023-01-15T22:25:37;5.13;;;2.30;;
16906;SDS011;8570;52.380;4.654;2023-01-15T22:30:42;4.67;;;2.40;;
16906;SDS011;8570;52.380;4.654;2023-01-15T22:35:54;4.33;;;2.50;;
16906;SDS011;8570;52.380;4.654;2023-01-15T22:41:05;4.90;;;2.87;;
16906;SDS011;8570;52.380;4.654;2023-01-15T22:46:10;5.10;;;3.20;;
16906;SDS011;8570;52.380;4.654;2023-01-15T22:51:19;4.67;;;3.60;;
16906;SDS011;8570;52.380;4.654;2023-01-15T22:56:23;4.30;;;3.47;;
16906;SDS011;8570;52.380;4.654;2023-01-15T23:01:28;6.40;;;3.63;;
16906;SDS011;8570;52.380;4.654;2023-01-15T23:06:33;4.90;;;3.57;;
16906;SDS011;8570;52.380;4.654;2023-01-15T23:11:36;3.37;;;3.07;;
16906;SDS011;8570;52.380;4.654;2023-01-15T23:16:39;4.23;;;3.00;;
16906;SDS011;8570;52.380;4.654;2023-01-15T23:21:44;4.27;;;3.00;;
16906;SDS011;8570;52.380;4.654;2023-01-15T23:26:48;3.57;;;2.90;;
16906;SDS011;8570;52.380;4.654;2023-01-15T23:31:56;5.50;;;3.10;;
16906;SDS011;8570;52.380;4.654;2023-01-15T23:37:01;4.73;;;2.87;;
16906;SDS011;8570;52.380;4.654;2023-01-15T23:42:13;3.20;;;2.90;;
16906;SDS011;8570;52.380;4.654;2023-01-15T23:47:37;5.23;;;3.23;;
16906;SDS011;8570;52.380;4.654;2023-01-15T23:52:50;3.43;;;2.90;;
16906;SDS011;8570;52.380;4.654;2023-01-15T23:57:57;5.10;;;3.60;;
